createdAt,value
2019-05-09T00:00:04.405Z,21.66
2019-05-09T00:01:04.096Z,21.66
2019-05-09T00:02:03.622Z,21.63
2019-05-09T00:03:03.618Z,21.64
2019-05-09T00:04:03.376Z,21.64
2019-05-09T00:05:03.557Z,21.63
2019-05-09T00:06:01.801Z,21.64
2019-05-09T00:07:03.446Z,21.63
2019-05-09T00:08:02.884Z,21.63
2019-05-09T00:09:00.466Z,21.64
2019-05-09T00:09:59.955Z,21.63
2019-05-09T00:10:59.473Z,21.62
2019-05-09T00:11:59.057Z,21.64
2019-05-09T00:12:58.605Z,21.64
2019-05-09T00:13:58.142Z,21.63
2019-05-09T00:14:57.684Z,21.63
2019-05-09T00:15:57.248Z,21.62
2019-05-09T00:16:56.820Z,21.63
2019-05-09T00:17:56.443Z,21.64
2019-05-09T00:18:56.066Z,21.64
2019-05-09T00:19:55.646Z,21.64
2019-05-09T00:20:55.170Z,21.64
2019-05-09T00:21:54.725Z,21.62
2019-05-09T00:22:54.247Z,21.63
2019-05-09T00:23:54.178Z,21.63
2019-05-09T00:24:54.001Z,21.63
2019-05-09T00:25:53.801Z,21.64
2019-05-09T00:26:53.362Z,21.65
2019-05-09T00:27:53.674Z,21.64
2019-05-09T00:28:53.335Z,21.63
2019-05-09T00:29:53.064Z,21.63
2019-05-09T00:30:50.508Z,21.63
2019-05-09T00:31:50.178Z,21.63
2019-05-09T00:32:49.763Z,21.64
2019-05-09T00:33:49.314Z,21.64
2019-05-09T00:34:48.871Z,21.64
2019-05-09T00:35:48.431Z,21.63
2019-05-09T00:36:48.009Z,21.63
2019-05-09T00:37:50.568Z,21.62
2019-05-09T00:38:49.348Z,21.63
2019-05-09T00:39:48.853Z,21.63
2019-05-09T00:40:57.750Z,21.62
2019-05-09T00:41:47.899Z,21.62
2019-05-09T00:42:47.445Z,21.63
2019-05-09T00:43:46.952Z,21.62
2019-05-09T00:44:46.509Z,21.62
2019-05-09T00:45:46.117Z,21.63
2019-05-09T00:46:45.651Z,21.63
2019-05-09T00:47:45.219Z,21.62
2019-05-09T00:48:44.752Z,21.62
2019-05-09T00:49:44.346Z,21.61
2019-05-09T00:50:43.954Z,21.62
2019-05-09T00:51:43.784Z,21.62
2019-05-09T00:52:43.133Z,21.62
2019-05-09T00:53:44.369Z,21.62
2019-05-09T00:54:43.761Z,21.59
2019-05-09T00:55:43.649Z,21.62
2019-05-09T00:56:43.455Z,21.62
2019-05-09T00:57:40.886Z,21.59
2019-05-09T00:58:40.356Z,21.62
2019-05-09T00:59:39.924Z,21.61
2019-05-09T01:00:39.460Z,21.62
2019-05-09T01:01:38.964Z,21.62
2019-05-09T01:02:38.537Z,21.62
2019-05-09T01:03:38.031Z,21.61
2019-05-09T01:04:37.640Z,21.61
2019-05-09T01:05:37.169Z,21.61
2019-05-09T01:06:36.721Z,21.61
2019-05-09T01:07:36.338Z,21.61
2019-05-09T01:08:35.920Z,21.61
2019-05-09T01:09:35.362Z,21.61
2019-05-09T01:10:34.913Z,21.60
2019-05-09T01:11:34.504Z,21.60
2019-05-09T01:12:34.244Z,21.60
2019-05-09T01:13:34.271Z,21.61
2019-05-09T01:14:33.994Z,21.61
2019-05-09T01:15:33.401Z,21.61
2019-05-09T01:16:33.549Z,21.60
2019-05-09T01:17:33.534Z,21.60
2019-05-09T01:18:33.161Z,21.59
2019-05-09T01:19:30.997Z,21.59
2019-05-09T01:20:30.532Z,21.58
2019-05-09T01:21:30.094Z,21.59
2019-05-09T01:22:29.725Z,21.60
2019-05-09T01:23:29.235Z,21.60
2019-05-09T01:24:28.898Z,21.59
2019-05-09T01:25:28.431Z,21.58
2019-05-09T01:26:28.094Z,21.58
2019-05-09T01:27:27.596Z,21.60
2019-05-09T01:28:27.303Z,21.59
2019-05-09T01:29:26.806Z,21.59
2019-05-09T01:30:26.359Z,21.59
2019-05-09T01:31:25.947Z,21.58
2019-05-09T01:32:25.531Z,21.57
2019-05-09T01:33:25.102Z,21.56
2019-05-09T01:34:24.659Z,21.58
2019-05-09T01:35:24.324Z,21.58
2019-05-09T01:36:23.807Z,21.58
2019-05-09T01:37:23.779Z,21.58
2019-05-09T01:38:23.301Z,21.57
2019-05-09T01:39:24.170Z,21.57
2019-05-09T01:40:23.917Z,21.58
2019-05-09T01:41:27.933Z,21.57
2019-05-09T01:42:23.213Z,21.58
2019-05-09T01:43:20.741Z,21.57
2019-05-09T01:44:20.260Z,21.58
2019-05-09T01:45:19.791Z,21.57
2019-05-09T01:46:19.439Z,21.56
2019-05-09T01:47:19.125Z,21.57
2019-05-09T01:48:18.766Z,21.56
2019-05-09T01:49:18.277Z,21.58
2019-05-09T01:50:17.908Z,21.57
2019-05-09T01:51:17.377Z,21.55
2019-05-09T01:52:16.940Z,21.56
2019-05-09T01:53:16.494Z,21.56
2019-05-09T01:54:16.039Z,21.56
2019-05-09T01:55:15.703Z,21.57
2019-05-09T01:56:15.256Z,21.57
2019-05-09T01:57:14.763Z,21.56
2019-05-09T01:58:14.307Z,21.55
2019-05-09T01:59:13.855Z,21.53
2019-05-09T02:00:13.479Z,21.53
2019-05-09T02:01:13.609Z,21.54
2019-05-09T02:02:14.164Z,21.54
2019-05-09T02:03:13.966Z,21.54
2019-05-09T02:04:13.680Z,21.53
2019-05-09T02:05:13.452Z,21.55
2019-05-09T02:06:13.466Z,21.55
2019-05-09T02:07:15.606Z,21.55
2019-05-09T02:08:14.405Z,21.53
2019-05-09T02:09:14.161Z,21.53
2019-05-09T02:10:13.966Z,21.52
2019-05-09T02:11:13.364Z,21.53
2019-05-09T02:12:14.192Z,21.54
2019-05-09T02:13:13.686Z,21.54
2019-05-09T02:14:13.334Z,21.54
2019-05-09T02:15:13.064Z,21.54
2019-05-09T02:16:10.593Z,21.53
2019-05-09T02:17:10.051Z,21.51
2019-05-09T02:18:09.707Z,21.54
2019-05-09T02:19:09.186Z,21.53
2019-05-09T02:20:08.825Z,21.51
2019-05-09T02:21:11.349Z,21.53
2019-05-09T02:22:07.921Z,21.52
2019-05-09T02:23:07.477Z,21.52
2019-05-09T02:24:07.063Z,21.53
2019-05-09T02:25:06.560Z,21.53
2019-05-09T02:26:06.097Z,21.51
2019-05-09T02:27:05.647Z,21.50
2019-05-09T02:28:08.142Z,21.49
2019-05-09T02:29:06.958Z,21.50
2019-05-09T02:30:06.499Z,21.50
2019-05-09T02:31:06.106Z,21.50
2019-05-09T02:32:08.664Z,21.50
2019-05-09T02:33:07.332Z,21.52
2019-05-09T02:34:07.036Z,21.50
2019-05-09T02:35:06.582Z,21.50
2019-05-09T02:36:09.511Z,21.51
2019-05-09T02:37:08.998Z,21.52
2019-05-09T02:38:05.296Z,21.51
2019-05-09T02:39:04.928Z,21.50
2019-05-09T02:40:04.476Z,21.50
2019-05-09T02:41:04.032Z,21.49
2019-05-09T02:42:09.426Z,21.49
2019-05-09T02:43:03.251Z,21.49
2019-05-09T02:44:02.765Z,21.51
2019-05-09T02:45:02.351Z,21.50
2019-05-09T02:46:01.948Z,21.49
2019-05-09T02:47:01.522Z,21.51
2019-05-09T02:48:01.031Z,21.49
2019-05-09T02:49:00.632Z,21.50
2019-05-09T02:50:00.175Z,21.49
2019-05-09T02:51:00.509Z,21.48
2019-05-09T02:51:59.650Z,21.49
2019-05-09T02:52:59.181Z,21.49
2019-05-09T02:53:58.749Z,21.48
2019-05-09T02:54:58.476Z,21.49
2019-05-09T02:55:58.417Z,21.49
2019-05-09T02:56:58.077Z,21.48
2019-05-09T02:57:59.060Z,21.48
2019-05-09T02:58:58.897Z,21.48
2019-05-09T02:59:55.732Z,21.49
2019-05-09T03:00:55.296Z,21.48
2019-05-09T03:01:54.817Z,21.49
2019-05-09T03:02:54.395Z,21.48
2019-05-09T03:03:53.923Z,21.48
2019-05-09T03:04:53.299Z,21.47
2019-05-09T03:05:52.854Z,21.47
2019-05-09T03:06:52.443Z,21.47
2019-05-09T03:07:52.011Z,21.48
2019-05-09T03:08:51.627Z,21.48
2019-05-09T03:09:51.103Z,21.48
2019-05-09T03:10:50.721Z,21.47
2019-05-09T03:11:50.310Z,21.47
2019-05-09T03:12:50.459Z,21.46
2019-05-09T03:13:49.777Z,21.46
2019-05-09T03:14:49.112Z,21.47
2019-05-09T03:15:49.435Z,21.47
2019-05-09T03:16:49.343Z,21.47
2019-05-09T03:17:49.450Z,21.46
2019-05-09T03:18:49.389Z,21.46
2019-05-09T03:19:48.782Z,21.47
2019-05-09T03:20:49.239Z,21.47
2019-05-09T03:21:49.188Z,21.46
2019-05-09T03:22:48.479Z,21.46
2019-05-09T03:23:45.163Z,21.47
2019-05-09T03:24:44.855Z,21.48
2019-05-09T03:25:48.462Z,21.46
2019-05-09T03:26:49.348Z,21.46
2019-05-09T03:27:48.405Z,21.47
2019-05-09T03:28:45.458Z,21.44
2019-05-09T03:29:59.139Z,21.45
2019-05-09T03:30:59.481Z,21.45
2019-05-09T03:32:00.252Z,21.45
2019-05-09T03:33:00.455Z,21.46
2019-05-09T03:34:01.063Z,21.45
2019-05-09T03:35:01.744Z,21.45
2019-05-09T03:36:04.741Z,21.44
2019-05-09T03:37:05.119Z,21.45
2019-05-09T03:38:08.251Z,21.45
2019-05-09T03:39:08.223Z,21.45
2019-05-09T03:40:07.964Z,21.44
2019-05-09T03:41:08.642Z,21.46
2019-05-09T03:42:08.744Z,21.45
2019-05-09T03:43:09.473Z,21.44
2019-05-09T03:44:10.206Z,21.44
2019-05-09T03:45:10.950Z,21.44
2019-05-09T03:46:11.746Z,21.44
2019-05-09T03:47:12.489Z,21.44
2019-05-09T03:48:11.486Z,21.44
2019-05-09T03:49:12.912Z,21.44
2019-05-09T03:50:13.724Z,21.43
2019-05-09T03:51:14.465Z,21.44
2019-05-09T03:52:15.200Z,21.44
2019-05-09T03:53:18.302Z,21.44
2019-05-09T03:54:18.412Z,21.44
2019-05-09T03:55:17.952Z,21.44
2019-05-09T03:56:18.355Z,21.43
2019-05-09T03:57:19.102Z,21.44
2019-05-09T03:58:20.886Z,21.44
2019-05-09T03:59:21.378Z,21.44
2019-05-09T04:00:22.220Z,21.43
2019-05-09T04:01:22.921Z,21.43
2019-05-09T04:02:23.547Z,21.44
2019-05-09T04:03:24.232Z,21.44
2019-05-09T04:04:24.936Z,21.43
2019-05-09T04:05:27.310Z,21.44
2019-05-09T04:06:28.190Z,21.43
2019-05-09T04:07:27.996Z,21.44
2019-05-09T04:08:28.310Z,21.44
2019-05-09T04:09:28.680Z,21.44
2019-05-09T04:10:29.374Z,21.43
2019-05-09T04:11:30.111Z,21.43
2019-05-09T04:12:30.785Z,21.44
2019-05-09T04:13:29.704Z,21.44
2019-05-09T04:14:30.986Z,21.43
2019-05-09T04:15:31.817Z,21.43
2019-05-09T04:16:32.575Z,21.43
2019-05-09T04:17:33.313Z,21.43
2019-05-09T04:18:33.971Z,21.43
2019-05-09T04:19:32.956Z,21.45
2019-05-09T04:20:34.408Z,21.44
2019-05-09T04:21:33.335Z,21.43
2019-05-09T04:22:32.868Z,21.45
2019-05-09T04:23:32.360Z,21.46
2019-05-09T04:24:31.977Z,21.46
2019-05-09T04:25:31.519Z,21.47
2019-05-09T04:26:31.057Z,21.47
2019-05-09T04:27:32.403Z,21.47
2019-05-09T04:28:31.452Z,21.49
2019-05-09T04:29:30.981Z,21.50
2019-05-09T04:30:30.498Z,21.50
2019-05-09T04:31:31.911Z,21.50
2019-05-09T04:32:30.868Z,21.51
2019-05-09T04:33:30.273Z,21.51
2019-05-09T04:34:29.973Z,21.54
2019-05-09T04:35:29.615Z,21.55
2019-05-09T04:36:30.917Z,21.54
2019-05-09T04:37:31.148Z,21.54
2019-05-09T04:38:47.202Z,21.54
2019-05-09T04:39:44.739Z,21.55
2019-05-09T04:40:45.904Z,21.54
2019-05-09T04:41:43.800Z,21.55
2019-05-09T04:42:44.527Z,21.55
2019-05-09T04:43:42.833Z,21.55
2019-05-09T04:44:42.196Z,21.55
2019-05-09T04:45:41.999Z,21.56
2019-05-09T04:46:41.195Z,21.55
2019-05-09T04:47:43.438Z,21.57
2019-05-09T04:48:40.222Z,21.56
2019-05-09T04:49:43.503Z,21.58
2019-05-09T04:50:39.224Z,21.57
2019-05-09T04:51:39.279Z,21.58
2019-05-09T04:52:40.002Z,21.58
2019-05-09T04:53:39.898Z,21.57
2019-05-09T04:54:38.462Z,21.56
2019-05-09T04:55:37.632Z,21.56
2019-05-09T04:56:38.136Z,21.57
2019-05-09T04:57:38.145Z,21.57
2019-05-09T04:58:37.508Z,21.57
2019-05-09T04:59:37.237Z,21.57
2019-05-09T05:00:34.763Z,21.58
2019-05-09T05:01:34.302Z,21.57
2019-05-09T05:02:33.933Z,21.56
2019-05-09T05:03:33.500Z,21.52
2019-05-09T05:04:33.013Z,21.53
2019-05-09T05:05:32.589Z,21.54
2019-05-09T05:06:32.180Z,21.55
2019-05-09T05:07:31.735Z,21.57
2019-05-09T05:08:31.307Z,21.57
2019-05-09T05:09:33.789Z,21.56
2019-05-09T05:10:32.588Z,21.57
2019-05-09T05:11:32.161Z,21.55
2019-05-09T05:12:31.690Z,21.58
2019-05-09T05:13:31.321Z,21.57
2019-05-09T05:14:30.907Z,21.57
2019-05-09T05:15:30.348Z,21.58
2019-05-09T05:16:29.913Z,21.57
2019-05-09T05:17:30.779Z,21.56
2019-05-09T05:18:29.083Z,21.56
2019-05-09T05:19:31.466Z,21.57
2019-05-09T05:20:28.339Z,21.57
2019-05-09T05:21:28.445Z,21.58
2019-05-09T05:23:27.641Z,21.56
2019-05-09T05:24:27.793Z,21.57
2019-05-09T05:25:27.890Z,21.57
2019-05-09T05:26:27.668Z,21.56
2019-05-09T05:27:27.647Z,21.57
2019-05-09T05:28:24.866Z,21.57
2019-05-09T05:29:24.471Z,21.56
2019-05-09T05:30:24.017Z,21.57
2019-05-09T05:31:23.573Z,21.55
2019-05-09T05:32:23.147Z,21.56
2019-05-09T05:33:22.637Z,21.55
2019-05-09T05:34:22.329Z,21.57
2019-05-09T05:35:21.789Z,21.57
2019-05-09T05:36:21.335Z,21.56
2019-05-09T05:37:20.878Z,21.56
2019-05-09T05:38:20.445Z,21.57
2019-05-09T05:39:20.023Z,21.56
2019-05-09T05:40:19.564Z,21.56
2019-05-09T05:41:19.127Z,21.56
2019-05-09T05:42:22.017Z,21.57
2019-05-09T05:43:18.271Z,21.58
2019-05-09T05:44:17.958Z,21.58
2019-05-09T05:45:18.103Z,21.56
2019-05-09T05:46:18.206Z,21.56
2019-05-09T05:47:18.009Z,21.57
2019-05-09T05:48:17.496Z,21.57
2019-05-09T05:49:15.898Z,21.57
2019-05-09T05:50:17.519Z,21.57
2019-05-09T05:51:18.416Z,21.56
2019-05-09T05:52:18.547Z,21.57
2019-05-09T05:53:18.391Z,21.58
2019-05-09T05:54:18.156Z,21.57
2019-05-09T05:55:18.276Z,21.56
2019-05-09T05:56:17.630Z,21.58
2019-05-09T05:57:17.698Z,21.57
2019-05-09T05:58:17.872Z,21.56
2019-05-09T05:59:14.803Z,21.58
2019-05-09T06:00:14.353Z,21.58
2019-05-09T06:01:13.884Z,21.57
2019-05-09T06:02:13.505Z,21.56
2019-05-09T06:03:13.136Z,21.56
2019-05-09T06:04:12.567Z,21.57
2019-05-09T06:05:15.118Z,21.56
2019-05-09T06:06:13.842Z,21.56
2019-05-09T06:07:13.446Z,21.55
2019-05-09T06:08:13.013Z,21.57
2019-05-09T06:09:12.394Z,21.57
2019-05-09T06:10:12.109Z,21.55
2019-05-09T06:11:12.359Z,21.57
2019-05-09T06:12:11.153Z,21.57
2019-05-09T06:13:10.772Z,21.57
2019-05-09T06:14:11.937Z,21.58
2019-05-09T06:15:09.846Z,21.56
2019-05-09T06:16:09.478Z,21.56
2019-05-09T06:17:09.020Z,21.56
2019-05-09T06:18:08.559Z,21.56
2019-05-09T06:19:09.035Z,21.56
2019-05-09T06:20:09.003Z,21.56
2019-05-09T06:21:08.862Z,21.55
2019-05-09T06:22:08.248Z,21.54
2019-05-09T06:23:08.598Z,21.55
2019-05-09T06:24:08.462Z,21.55
2019-05-09T06:25:09.227Z,21.55
2019-05-09T06:26:09.397Z,21.55
2019-05-09T06:27:07.861Z,21.55
2019-05-09T06:28:04.308Z,21.53
2019-05-09T06:29:03.838Z,21.54
2019-05-09T06:30:03.378Z,21.53
2019-05-09T06:31:02.986Z,21.54
2019-05-09T06:32:02.618Z,21.54
2019-05-09T06:33:04.883Z,21.53
2019-05-09T06:34:01.709Z,21.55
2019-05-09T06:35:01.263Z,21.55
2019-05-09T06:36:00.785Z,21.53
2019-05-09T06:37:03.141Z,21.53
2019-05-09T06:37:59.924Z,21.53
2019-05-09T06:38:59.518Z,21.52
2019-05-09T06:39:59.189Z,21.52
2019-05-09T06:40:58.622Z,21.54
2019-05-09T06:41:58.196Z,21.54
2019-05-09T06:42:59.324Z,21.53
2019-05-09T06:44:11.088Z,21.53
2019-05-09T06:44:58.413Z,21.53
2019-05-09T06:45:57.569Z,21.52
2019-05-09T06:46:58.418Z,21.53
2019-05-09T06:47:55.579Z,21.52
2019-05-09T06:49:17.870Z,21.52
2019-05-09T06:49:54.747Z,21.53
2019-05-09T06:50:54.342Z,21.52
2019-05-09T06:51:53.885Z,21.51
2019-05-09T06:52:53.583Z,21.51
2019-05-09T06:53:53.048Z,21.51
2019-05-09T06:54:52.702Z,21.52
2019-05-09T06:55:52.286Z,21.52
2019-05-09T06:56:51.795Z,21.52
2019-05-09T06:57:51.384Z,21.52
2019-05-09T06:58:50.930Z,21.52
2019-05-09T06:59:50.554Z,21.52
2019-05-09T07:00:50.066Z,21.53
2019-05-09T07:01:49.670Z,21.51
2019-05-09T07:02:49.181Z,21.52
2019-05-09T07:03:48.759Z,21.53
2019-05-09T07:04:48.408Z,21.53
2019-05-09T07:05:48.134Z,21.52
2019-05-09T07:06:48.330Z,21.52
2019-05-09T07:07:48.156Z,21.52
2019-05-09T07:08:47.683Z,21.52
2019-05-09T07:09:47.922Z,21.52
2019-05-09T07:10:45.594Z,21.52
2019-05-09T07:11:45.331Z,21.53
2019-05-09T07:12:44.827Z,21.54
2019-05-09T07:13:44.466Z,21.51
2019-05-09T07:14:44.147Z,21.53
2019-05-09T07:15:43.689Z,21.53
2019-05-09T07:16:43.219Z,21.54
2019-05-09T07:17:42.800Z,21.54
2019-05-09T07:18:42.336Z,21.53
2019-05-09T07:19:43.901Z,21.53
2019-05-09T07:20:41.470Z,21.51
2019-05-09T07:21:41.009Z,21.52
2019-05-09T07:22:40.588Z,21.53
2019-05-09T07:23:40.158Z,21.51
2019-05-09T07:24:39.685Z,21.54
2019-05-09T07:25:39.249Z,21.53
2019-05-09T07:26:38.736Z,21.54
2019-05-09T07:27:39.101Z,21.52
2019-05-09T07:28:37.968Z,21.52
2019-05-09T07:29:37.680Z,21.52
2019-05-09T07:30:37.645Z,21.52
2019-05-09T07:31:37.969Z,21.52
2019-05-09T07:32:38.219Z,21.53
2019-05-09T07:33:38.237Z,21.53
2019-05-09T07:34:35.311Z,21.54
2019-05-09T07:35:34.904Z,21.52
2019-05-09T07:36:34.416Z,21.52
2019-05-09T07:37:33.978Z,21.53
2019-05-09T07:38:33.595Z,21.52
2019-05-09T07:39:33.158Z,21.51
2019-05-09T07:40:32.761Z,21.53
2019-05-09T07:41:33.749Z,21.53
2019-05-09T07:42:31.948Z,21.52
2019-05-09T07:43:31.459Z,21.52
2019-05-09T07:44:45.356Z,21.52
2019-05-09T07:45:30.549Z,21.51
2019-05-09T07:46:30.069Z,21.50
2019-05-09T07:47:29.684Z,21.52
2019-05-09T07:48:29.222Z,21.52
2019-05-09T07:49:28.758Z,21.52
2019-05-09T07:50:28.288Z,21.53
2019-05-09T07:51:27.959Z,21.51
2019-05-09T07:52:28.375Z,21.52
2019-05-09T07:53:40.980Z,21.51
2019-05-09T07:54:40.991Z,21.51
2019-05-09T07:55:41.689Z,21.52
2019-05-09T07:56:42.478Z,21.52
2019-05-09T07:57:47.503Z,21.52
2019-05-09T07:58:43.972Z,21.52
2019-05-09T07:59:44.798Z,21.51
2019-05-09T08:00:45.544Z,21.52
2019-05-09T08:01:48.131Z,21.53
2019-05-09T08:02:47.718Z,21.53
2019-05-09T08:03:49.039Z,21.52
2019-05-09T08:04:49.069Z,21.53
2019-05-09T08:05:49.252Z,21.52
2019-05-09T08:06:49.957Z,21.53
2019-05-09T08:07:50.836Z,21.53
2019-05-09T08:08:51.598Z,21.53
2019-05-09T08:09:52.482Z,21.53
2019-05-09T08:10:54.518Z,21.53
2019-05-09T08:11:55.034Z,21.54
2019-05-09T08:12:58.318Z,21.53
2019-05-09T08:13:57.503Z,21.53
2019-05-09T08:15:10.147Z,21.53
2019-05-09T08:15:59.025Z,21.53
2019-05-09T08:17:02.541Z,21.53
2019-05-09T08:18:02.897Z,21.53
2019-05-09T08:19:03.660Z,21.54
2019-05-09T08:20:04.434Z,21.52
2019-05-09T08:21:08.597Z,21.52
2019-05-09T08:22:11.544Z,21.53
2019-05-09T08:23:11.886Z,21.52
2019-05-09T08:24:15.633Z,21.52
2019-05-09T08:25:18.203Z,21.53
2019-05-09T08:26:18.778Z,21.53
2019-05-09T08:27:17.678Z,21.54
2019-05-09T08:28:20.182Z,21.54
2019-05-09T08:29:20.029Z,21.54
2019-05-09T08:30:19.749Z,21.55
2019-05-09T08:31:23.445Z,21.55
2019-05-09T08:32:23.895Z,21.55
2019-05-09T08:33:24.711Z,21.54
2019-05-09T08:34:28.640Z,21.56
2019-05-09T08:35:29.924Z,21.56
2019-05-09T08:36:30.491Z,21.56
2019-05-09T08:37:31.188Z,21.56
2019-05-09T08:38:31.904Z,21.57
2019-05-09T08:39:32.576Z,21.58
2019-05-09T08:40:33.295Z,21.58
2019-05-09T08:41:49.255Z,21.58
2019-05-09T08:42:48.131Z,21.59
2019-05-09T08:43:48.376Z,21.61
2019-05-09T08:44:48.217Z,21.59
2019-05-09T08:45:48.328Z,21.60
2019-05-09T08:46:47.977Z,21.58
2019-05-09T08:47:45.347Z,21.60
2019-05-09T08:48:44.951Z,21.61
2019-05-09T08:49:46.528Z,21.60
2019-05-09T08:50:44.119Z,21.60
2019-05-09T08:52:02.885Z,21.61
2019-05-09T08:52:43.253Z,21.60
2019-05-09T08:53:42.730Z,21.60
2019-05-09T08:54:42.267Z,21.61
2019-05-09T08:55:41.820Z,21.61
2019-05-09T08:56:41.415Z,21.60
2019-05-09T08:57:41.003Z,21.60
2019-05-09T08:58:40.541Z,21.59
2019-05-09T08:59:40.128Z,21.59
2019-05-09T09:00:39.600Z,21.59
2019-05-09T09:02:04.542Z,21.59
2019-05-09T09:02:38.842Z,21.59
2019-05-09T09:03:38.419Z,21.60
2019-05-09T09:04:38.498Z,21.58
2019-05-09T09:05:38.313Z,21.59
2019-05-09T09:06:37.972Z,21.58
2019-05-09T09:07:37.952Z,21.57
2019-05-09T09:08:50.182Z,21.57
2019-05-09T09:09:50.254Z,21.58
2019-05-09T09:10:50.937Z,21.59
2019-05-09T09:11:51.671Z,21.59
2019-05-09T09:12:52.432Z,21.59
2019-05-09T09:13:53.072Z,21.58
2019-05-09T09:14:53.818Z,21.59
2019-05-09T09:16:11.715Z,21.58
2019-05-09T09:16:57.423Z,21.58
2019-05-09T09:17:57.941Z,21.59
2019-05-09T09:18:58.351Z,21.59
2019-05-09T09:19:58.287Z,21.58
2019-05-09T09:20:58.883Z,21.58
2019-05-09T09:22:00.667Z,21.58
2019-05-09T09:22:59.734Z,21.58
2019-05-09T09:24:00.537Z,21.58
2019-05-09T09:25:01.357Z,21.58
2019-05-09T09:26:02.030Z,21.57
2019-05-09T09:27:02.707Z,21.57
2019-05-09T09:28:03.564Z,21.57
2019-05-09T09:29:04.434Z,21.57
2019-05-09T09:30:17.777Z,21.57
2019-05-09T09:31:08.205Z,21.57
2019-05-09T09:32:08.362Z,21.57
2019-05-09T09:33:11.340Z,21.57
2019-05-09T09:34:12.042Z,21.57
2019-05-09T09:35:12.374Z,21.57
2019-05-09T09:36:13.190Z,21.58
2019-05-09T09:37:13.951Z,21.57
2019-05-09T09:38:14.671Z,21.57
2019-05-09T09:39:15.398Z,21.58
2019-05-09T09:40:17.716Z,21.58
2019-05-09T09:41:18.188Z,21.59
2019-05-09T09:42:19.900Z,21.58
2019-05-09T09:43:18.493Z,21.60
2019-05-09T09:44:22.487Z,21.61
2019-05-09T09:45:19.975Z,21.59
2019-05-09T09:46:20.819Z,21.60
2019-05-09T09:47:23.405Z,21.61
2019-05-09T09:48:22.453Z,21.63
2019-05-09T09:49:23.164Z,21.62
2019-05-09T09:50:23.955Z,21.62
2019-05-09T09:51:24.758Z,21.64
2019-05-09T09:52:25.480Z,21.64
2019-05-09T09:53:27.829Z,21.65
2019-05-09T09:54:28.153Z,21.64
2019-05-09T09:55:27.977Z,21.65
2019-05-09T09:56:28.530Z,21.65
2019-05-09T09:57:29.125Z,21.65
2019-05-09T09:58:29.885Z,21.66
2019-05-09T09:59:30.595Z,21.65
2019-05-09T10:00:31.295Z,21.65
2019-05-09T10:01:31.967Z,21.66
2019-05-09T10:02:32.633Z,21.67
2019-05-09T10:03:33.381Z,21.65
2019-05-09T10:04:34.076Z,21.65
2019-05-09T10:05:34.888Z,21.66
2019-05-09T10:06:38.552Z,21.66
2019-05-09T10:07:38.463Z,21.66
2019-05-09T10:08:39.737Z,21.65
2019-05-09T10:09:37.983Z,21.65
2019-05-09T10:10:38.986Z,21.66
2019-05-09T10:11:39.643Z,21.65
2019-05-09T10:12:44.558Z,21.64
2019-05-09T10:13:43.960Z,21.65
2019-05-09T10:14:44.635Z,21.64
2019-05-09T10:15:47.454Z,21.65
2019-05-09T10:16:47.796Z,21.64
2019-05-09T10:17:47.725Z,21.66
2019-05-09T10:18:47.670Z,21.65
2019-05-09T10:19:48.380Z,21.65
2019-05-09T10:20:49.206Z,21.63
2019-05-09T10:22:05.151Z,21.65
2019-05-09T10:23:15.235Z,21.65
2019-05-09T10:24:02.796Z,21.65
2019-05-09T10:25:02.345Z,21.64
2019-05-09T10:26:01.977Z,21.64
2019-05-09T10:27:01.401Z,21.65
2019-05-09T10:28:00.904Z,21.64
2019-05-09T10:29:00.676Z,21.63
2019-05-09T10:30:00.173Z,21.64
2019-05-09T10:30:59.734Z,21.63
2019-05-09T10:32:58.994Z,21.64
2019-05-09T10:33:58.497Z,21.63
2019-05-09T10:34:58.253Z,21.63
2019-05-09T10:36:04.502Z,21.63
2019-05-09T10:36:58.283Z,21.62
2019-05-09T10:37:58.913Z,21.63
2019-05-09T10:38:58.432Z,21.63
2019-05-09T10:39:58.087Z,21.63
2019-05-09T10:41:00.082Z,21.63
2019-05-09T10:41:57.558Z,21.63
2019-05-09T10:42:54.695Z,21.62
2019-05-09T10:43:57.991Z,21.62
2019-05-09T10:44:58.150Z,21.63
2019-05-09T10:45:57.775Z,21.63
2019-05-09T10:47:00.745Z,21.62
2019-05-09T10:47:57.784Z,21.62
2019-05-09T10:48:58.639Z,21.63
2019-05-09T10:49:58.180Z,21.62
2019-05-09T10:51:03.510Z,21.62
2019-05-09T10:51:55.275Z,21.61
2019-05-09T10:52:54.757Z,21.61
2019-05-09T10:53:54.345Z,21.60
2019-05-09T10:54:53.892Z,21.60
2019-05-09T10:55:53.454Z,21.62
2019-05-09T10:56:52.996Z,21.62
2019-05-09T10:57:53.046Z,21.61
2019-05-09T10:58:52.195Z,21.61
2019-05-09T10:59:51.732Z,21.62
2019-05-09T11:00:51.228Z,21.62
2019-05-09T11:01:50.757Z,21.62
2019-05-09T11:02:50.245Z,21.62
2019-05-09T11:03:49.771Z,21.63
2019-05-09T11:04:49.414Z,21.63
2019-05-09T11:05:48.964Z,21.63
2019-05-09T11:06:48.500Z,21.63
2019-05-09T11:07:49.545Z,21.63
2019-05-09T11:08:48.072Z,21.62
2019-05-09T11:09:48.107Z,21.63
2019-05-09T11:10:47.529Z,21.63
2019-05-09T11:11:48.385Z,21.63
2019-05-09T11:12:47.853Z,21.62
2019-05-09T11:13:47.909Z,21.63
2019-05-09T11:14:45.147Z,21.62
2019-05-09T11:15:44.748Z,21.62
2019-05-09T11:16:47.447Z,21.61
2019-05-09T11:17:43.787Z,21.63
2019-05-09T11:18:43.298Z,21.63
2019-05-09T11:19:42.927Z,21.63
2019-05-09T11:20:42.460Z,21.63
2019-05-09T11:21:41.991Z,21.63
2019-05-09T11:22:41.774Z,21.62
2019-05-09T11:23:41.067Z,21.62
2019-05-09T11:24:46.122Z,21.62
2019-05-09T11:25:41.142Z,21.61
2019-05-09T11:26:40.275Z,21.61
2019-05-09T11:27:39.744Z,21.61
2019-05-09T11:28:39.257Z,21.60
2019-05-09T11:29:39.014Z,21.61
2019-05-09T11:30:38.756Z,21.62
2019-05-09T11:31:38.604Z,21.62
2019-05-09T11:32:38.560Z,21.62
2019-05-09T11:33:38.624Z,21.61
2019-05-09T11:34:38.650Z,21.60
2019-05-09T11:35:38.174Z,21.62
2019-05-09T11:36:37.949Z,21.61
2019-05-09T11:37:38.338Z,21.61
2019-05-09T11:38:43.175Z,21.61
2019-05-09T11:39:41.777Z,21.61
2019-05-09T11:40:37.681Z,21.62
2019-05-09T11:41:34.982Z,21.61
2019-05-09T11:42:34.489Z,21.61
2019-05-09T11:43:34.008Z,21.61
2019-05-09T11:44:33.518Z,21.62
2019-05-09T11:45:33.074Z,21.62
2019-05-09T11:46:32.634Z,21.60
2019-05-09T11:47:39.703Z,21.61
2019-05-09T11:48:31.681Z,21.62
2019-05-09T11:49:34.183Z,21.61
2019-05-09T11:50:32.925Z,21.61
2019-05-09T11:51:32.488Z,21.62
2019-05-09T11:52:32.097Z,21.61
2019-05-09T11:53:31.593Z,21.62
2019-05-09T11:54:31.128Z,21.63
2019-05-09T11:55:35.955Z,21.62
2019-05-09T11:56:30.279Z,21.62
2019-05-09T11:57:31.574Z,21.61
2019-05-09T11:58:29.464Z,21.62
2019-05-09T11:59:29.063Z,21.61
2019-05-09T12:00:29.475Z,21.61
2019-05-09T12:01:29.282Z,21.62
2019-05-09T12:02:28.014Z,21.61
2019-05-09T12:03:27.193Z,21.62
2019-05-09T12:04:28.175Z,21.61
2019-05-09T12:05:28.593Z,21.60
2019-05-09T12:06:28.132Z,21.61
2019-05-09T12:07:25.601Z,21.61
2019-05-09T12:08:25.070Z,21.62
2019-05-09T12:09:24.614Z,21.62
2019-05-09T12:10:24.131Z,21.63
2019-05-09T12:11:23.720Z,21.62
2019-05-09T12:12:23.164Z,21.62
2019-05-09T12:13:22.736Z,21.62
2019-05-09T12:14:22.333Z,21.62
2019-05-09T12:15:21.835Z,21.63
2019-05-09T12:16:21.552Z,21.62
2019-05-09T12:17:21.069Z,21.63
2019-05-09T12:18:20.504Z,21.63
2019-05-09T12:19:20.022Z,21.62
2019-05-09T12:20:19.578Z,21.63
2019-05-09T12:21:19.625Z,21.63
2019-05-09T12:22:19.269Z,21.63
2019-05-09T12:23:19.947Z,21.63
2019-05-09T12:24:18.356Z,21.64
2019-05-09T12:25:18.317Z,21.64
2019-05-09T12:26:18.035Z,21.65
2019-05-09T12:27:18.801Z,21.65
2019-05-09T12:28:15.770Z,21.64
2019-05-09T12:29:15.296Z,21.64
2019-05-09T12:30:14.776Z,21.64
2019-05-09T12:31:14.208Z,21.65
2019-05-09T12:32:13.701Z,21.64
2019-05-09T12:33:13.177Z,21.62
2019-05-09T12:34:12.707Z,21.64
2019-05-09T12:35:12.175Z,21.63
2019-05-09T12:36:11.768Z,21.63
2019-05-09T12:37:11.285Z,21.65
2019-05-09T12:38:10.813Z,21.65
2019-05-09T12:39:10.355Z,21.65
2019-05-09T12:40:09.885Z,21.67
2019-05-09T12:41:09.355Z,21.67
2019-05-09T12:42:09.020Z,21.66
2019-05-09T12:43:09.111Z,21.67
2019-05-09T12:44:08.831Z,21.67
2019-05-09T12:45:08.379Z,21.69
2019-05-09T12:46:08.623Z,21.68
2019-05-09T12:47:06.542Z,21.67
2019-05-09T12:48:11.712Z,21.68
2019-05-09T12:49:05.444Z,21.69
2019-05-09T12:50:04.883Z,21.69
2019-05-09T12:51:04.378Z,21.70
2019-05-09T12:52:03.864Z,21.72
2019-05-09T12:53:03.438Z,21.72
2019-05-09T12:54:02.927Z,21.72